Time;durP1;ratioP1;P1;durP2;ratioP2;P2;SDS_P1;SDS_P2;PMS_P1;PMS_P2;Temp;Humidity;BMP_temperature;BMP_pressure;BME280_temperature;BME280_humidity;BME280_pressure;Samples;Min_cycle;Max_cycle;Signal;HPM_P1;HPM_P2
2022/07/30 00:02:02;;;;;;;13.32;9.13;;;16.60;80.80;;;;;;5060915;28;20025;-75
2022/07/30 00:04:28;;;;;;;13.93;9.27;;;16.50;80.90;;;;;;5061112;28;20044;-75
2022/07/30 00:06:54;;;;;;;12.60;9.02;;;16.50;81.00;;;;;;5061425;28;20035;-75
2022/07/30 00:09:19;;;;;;;11.70;9.25;;;16.50;80.90;;;;;;5060282;28;20071;-78
2022/07/30 00:11:45;;;;;;;12.90;9.25;;;16.50;80.80;;;;;;5052929;28;20585;-75
2022/07/30 00:14:11;;;;;;;13.32;9.45;;;16.40;80.90;;;;;;5062186;28;20029;-75
2022/07/30 00:16:37;;;;;;;15.95;9.57;;;16.40;81.00;;;;;;5059473;28;20437;-76
2022/07/30 00:19:02;;;;;;;14.48;9.32;;;16.40;81.10;;;;;;5059344;28;20063;-75
2022/07/30 00:21:28;;;;;;;14.65;9.80;;;16.40;80.90;;;;;;5055361;28;20379;-77
2022/07/30 00:23:54;;;;;;;13.75;10.05;;;16.40;80.80;;;;;;5055051;28;20033;-76
2022/07/30 00:26:19;;;;;;;13.98;9.88;;;16.30;80.80;;;;;;5054041;28;20115;-75
2022/07/30 00:28:45;;;;;;;13.73;9.70;;;16.30;80.90;;;;;;5059144;28;20419;-75
2022/07/30 00:31:11;;;;;;;13.63;10.68;;;16.20;81.10;;;;;;5052504;28;20094;-76
2022/07/30 00:33:37;;;;;;;15.88;11.15;;;16.20;81.20;;;;;;5055958;28;20090;-76
2022/07/30 00:36:03;;;;;;;14.13;10.52;;;16.10;81.40;;;;;;5060079;28;20067;-76
2022/07/30 00:38:28;;;;;;;16.13;10.82;;;16.10;81.40;;;;;;5056979;28;20476;-76
2022/07/30 00:40:54;;;;;;;14.80;10.98;;;16.10;81.50;;;;;;5060422;28;20416;-76
2022/07/30 00:43:20;;;;;;;14.48;10.90;;;16.10;81.70;;;;;;5055187;28;20029;-78
2022/07/30 00:45:46;;;;;;;17.92;11.43;;;16.10;82.00;;;;;;5065383;28;20082;-76
2022/07/30 00:48:13;;;;;;;12.98;10.93;;;16.10;82.10;;;;;;5064002;28;20048;-76
2022/07/30 00:50:39;;;;;;;12.50;11.02;;;16.10;82.00;;;;;;5061763;28;20033;-76
2022/07/30 00:53:06;;;;;;;15.38;10.70;;;16.00;82.00;;;;;;5061555;28;20037;-76
2022/07/30 00:55:33;;;;;;;15.10;11.60;;;16.00;82.00;;;;;;5062597;28;20040;-77
2022/07/30 00:57:59;;;;;;;13.90;10.63;;;16.00;82.30;;;;;;5060494;28;20033;-76
2022/07/30 01:00:25;;;;;;;19.02;11.88;;;15.90;82.40;;;;;;5064987;28;20468;-76
2022/07/30 01:02:50;;;;;;;16.02;12.02;;;15.90;82.60;;;;;;5062610;28;20226;-79
2022/07/30 01:05:17;;;;;;;15.23;11.65;;;15.90;82.60;;;;;;5057340;28;20156;-76
2022/07/30 01:07:43;;;;;;;14.35;11.68;;;15.90;82.70;;;;;;5063176;28;20063;-76
2022/07/30 01:10:10;;;;;;;16.00;11.85;;;15.80;82.90;;;;;;5061756;28;20082;-76
2022/07/30 01:12:37;;;;;;;14.98;12.30;;;15.80;83.00;;;;;;5055421;28;20112;-79
2022/07/30 01:15:05;;;;;;;15.38;11.63;;;15.80;83.00;;;;;;5062298;28;20143;-76
2022/07/30 01:17:31;;;;;;;15.68;11.90;;;15.80;83.00;;;;;;5059871;28;20040;-76
2022/07/30 01:20:03;;;;;;;15.60;11.27;;;15.80;82.90;;;;;;5059454;28;20043;-77
2022/07/30 01:22:41;;;;;;;15.57;10.95;;;15.70;83.00;;;;;;5055650;28;20388;-77
2022/07/30 01:25:25;;;;;;;14.02;10.95;;;15.70;83.00;;;;;;5055271;28;20044;-76
2022/07/30 01:28:03;;;;;;;18.40;12.63;;;15.80;83.20;;;;;;5061969;28;20456;-76
2022/07/30 01:30:32;;;;;;;15.63;12.52;;;15.70;83.30;;;;;;5051987;28;20033;-76
2022/07/30 01:32:59;;;;;;;14.40;11.95;;;15.70;83.20;;;;;;5058155;28;20046;-76
2022/07/30 01:35:28;;;;;;;14.55;11.15;;;15.80;83.20;;;;;;5059386;28;20040;-77
2022/07/30 01:37:55;;;;;;;15.77;12.27;;;15.70;83.10;;;;;;5057871;28;20028;-77
2022/07/30 01:40:24;;;;;;;17.25;12.85;;;15.70;82.90;;;;;;5058128;28;20047;-79
2022/07/30 01:42:56;;;;;;;15.07;11.52;;;15.60;83.00;;;;;;5060056;28;20055;-76
2022/07/30 01:45:27;;;;;;;16.25;12.88;;;15.60;83.20;;;;;;5062966;28;20024;-76
2022/07/30 01:47:54;;;;;;;16.42;12.48;;;15.60;83.10;;;;;;5055348;28;20625;-77
2022/07/30 01:50:21;;;;;;;19.65;12.10;;;15.60;83.20;;;;;;5059322;28;20090;-77
2022/07/30 01:52:51;;;;;;;15.90;12.10;;;15.60;83.10;;;;;;5062793;28;20151;-77
2022/07/30 01:55:24;;;;;;;13.52;11.95;;;15.60;83.10;;;;;;5059360;28;20372;-77
2022/07/30 01:57:50;;;;;;;15.80;11.45;;;15.60;83.20;;;;;;5057001;28;20119;-78
2022/07/30 02:00:17;;;;;;;14.20;11.35;;;15.60;83.10;;;;;;5062192;28;20028;-76
2022/07/30 02:02:44;;;;;;;14.77;11.35;;;15.50;82.70;;;;;;5065185;28;20483;-76
2022/07/30 02:05:10;;;;;;;12.73;11.25;;;15.40;82.60;;;;;;5055769;28;20453;-77
2022/07/30 02:07:44;;;;;;;15.10;11.70;;;15.40;82.70;;;;;;5061508;28;20108;-76
2022/07/30 02:10:13;;;;;;;13.77;11.65;;;15.40;82.60;;;;;;5057291;28;20543;-76
2022/07/30 02:12:47;;;;;;;15.00;10.38;;;15.40;82.60;;;;;;5061096;28;20044;-77
2022/07/30 02:15:33;;;;;;;13.70;10.63;;;15.30;82.60;;;;;;5062300;28;20406;-76
2022/07/30 02:18:20;;;;;;;14.57;11.57;;;15.30;82.60;;;;;;5059849;28;20749;-77
2022/07/30 02:20:54;;;;;;;16.05;11.73;;;15.30;82.60;;;;;;5059872;28;20096;-77
2022/07/30 02:23:22;;;;;;;15.95;10.70;;;15.20;82.60;;;;;;5050184;28;20032;-76
2022/07/30 02:25:49;;;;;;;15.57;11.25;;;15.20;82.40;;;;;;5058932;28;20036;-77
2022/07/30 02:28:17;;;;;;;15.75;10.90;;;15.20;82.40;;;;;;5053132;28;20082;-76
2022/07/30 02:30:53;;;;;;;16.65;11.80;;;15.10;82.20;;;;;;5059764;28;20099;-76
2022/07/30 02:33:23;;;;;;;14.80;11.98;;;15.10;82.10;;;;;;5062184;28;20075;-76
2022/07/30 02:35:51;;;;;;;17.02;11.90;;;15.10;82.30;;;;;;5064949;28;20048;-76
2022/07/30 02:38:19;;;;;;;14.88;10.70;;;15.00;82.70;;;;;;5057957;28;20033;-76
2022/07/30 02:40:46;;;;;;;14.70;11.38;;;15.10;82.80;;;;;;5055989;28;20078;-76
2022/07/30 02:43:15;;;;;;;14.85;11.90;;;15.00;82.80;;;;;;5062177;28;20059;-77
2022/07/30 02:45:42;;;;;;;15.05;11.50;;;15.00;82.80;;;;;;5067811;28;20036;-76
2022/07/30 02:48:10;;;;;;;16.60;11.48;;;15.00;82.70;;;;;;5057488;28;20040;-76
2022/07/30 02:50:36;;;;;;;16.40;11.60;;;15.00;82.60;;;;;;5062472;28;20044;-76
2022/07/30 02:53:06;;;;;;;15.50;11.23;;;15.00;82.40;;;;;;5060502;28;20040;-78
2022/07/30 02:55:34;;;;;;;13.90;10.90;;;15.00;82.20;;;;;;5058186;28;20081;-76
2022/07/30 02:58:01;;;;;;;14.68;10.35;;;15.00;82.30;;;;;;5057827;28;20035;-76
2022/07/30 03:00:29;;;;;;;14.45;11.15;;;15.00;82.10;;;;;;5058582;28;20084;-79
2022/07/30 03:02:56;;;;;;;15.63;11.52;;;14.90;82.00;;;;;;5060650;28;20486;-77
2022/07/30 03:05:23;;;;;;;13.30;11.18;;;14.90;81.90;;;;;;5050946;28;20048;-76
2022/07/30 03:07:50;;;;;;;14.25;11.55;;;14.90;81.80;;;;;;5057154;28;20036;-76
2022/07/30 03:10:16;;;;;;;16.52;10.65;;;14.90;81.80;;;;;;5062037;28;20503;-77
2022/07/30 03:12:45;;;;;;;14.98;11.02;;;14.80;81.80;;;;;;5058947;28;20160;-77
2022/07/30 03:15:11;;;;;;;13.10;10.05;;;14.80;81.90;;;;;;5051386;28;20491;-77
2022/07/30 03:17:41;;;;;;;15.18;12.07;;;14.80;81.90;;;;;;5057206;28;20093;-76
2022/07/30 03:20:09;;;;;;;13.73;11.07;;;14.80;82.00;;;;;;5061429;28;20048;-76
2022/07/30 03:22:41;;;;;;;15.88;11.40;;;14.80;82.00;;;;;;5062690;28;20094;-79
2022/07/30 03:25:08;;;;;;;15.98;11.82;;;14.80;81.90;;;;;;5064018;28;20045;-77
2022/07/30 03:27:37;;;;;;;15.02;10.95;;;14.90;81.90;;;;;;5064825;28;20120;-77
2022/07/30 03:30:04;;;;;;;15.63;12.48;;;14.90;81.90;;;;;;5051086;28;20049;-76
2022/07/30 03:32:30;;;;;;;17.23;11.80;;;14.80;82.00;;;;;;5081525;28;20028;-77
2022/07/30 03:34:58;;;;;;;13.43;11.07;;;14.90;82.00;;;;;;5063186;28;20140;-75
2022/07/30 03:37:26;;;;;;;15.48;11.85;;;14.80;82.00;;;;;;5060316;28;20057;-77
2022/07/30 03:39:52;;;;;;;14.38;11.90;;;14.80;81.90;;;;;;5057149;28;20037;-76
2022/07/30 03:42:19;;;;;;;15.68;11.20;;;14.80;82.00;;;;;;5056069;28;20051;-77
2022/07/30 03:44:46;;;;;;;13.13;11.60;;;14.80;82.10;;;;;;5063514;28;20048;-75
2022/07/30 03:47:14;;;;;;;13.20;11.43;;;14.80;82.30;;;;;;5061784;28;20090;-76
2022/07/30 03:49:40;;;;;;;13.90;12.13;;;14.80;82.40;;;;;;5063090;28;20074;-76
2022/07/30 03:52:07;;;;;;;15.18;12.52;;;14.70;82.30;;;;;;5061312;28;20044;-76
2022/07/30 03:54:33;;;;;;;15.55;12.65;;;14.80;82.40;;;;;;5061420;28;20437;-77
2022/07/30 03:57:01;;;;;;;15.27;12.82;;;14.80;82.40;;;;;;5059977;28;20029;-77
2022/07/30 03:59:27;;;;;;;14.82;11.65;;;14.80;82.50;;;;;;5065489;28;20053;-77
2022/07/30 04:01:53;;;;;;;15.65;11.88;;;14.70;82.50;;;;;;5062324;28;20040;-76
2022/07/30 04:04:19;;;;;;;14.63;11.15;;;14.70;82.60;;;;;;5062648;28;20403;-77
2022/07/30 04:06:45;;;;;;;15.32;12.02;;;14.70;82.60;;;;;;5061921;28;20041;-76
2022/07/30 04:09:12;;;;;;;15.35;11.27;;;14.70;82.40;;;;;;5065041;28;20423;-77
2022/07/30 04:11:38;;;;;;;15.27;11.43;;;14.60;82.20;;;;;;5059971;28;20091;-75
2022/07/30 04:14:04;;;;;;;15.95;11.90;;;14.70;82.40;;;;;;5062256;28;20036;-76
2022/07/30 04:16:56;;;;;;;15.75;12.10;;;14.60;82.20;;;;;;5065517;28;20049;-76
2022/07/30 04:19:29;;;;;;;17.20;12.35;;;14.70;82.10;;;;;;5056594;28;20056;-76
2022/07/30 04:21:57;;;;;;;14.70;12.13;;;14.70;82.10;;;;;;5064715;28;20037;-76
2022/07/30 04:24:24;;;;;;;14.05;12.43;;;14.60;82.20;;;;;;5064427;28;20032;-76
2022/07/30 04:26:51;;;;;;;14.75;11.55;;;14.70;82.10;;;;;;5061061;28;20604;-76
2022/07/30 04:29:18;;;;;;;17.30;12.88;;;14.60;82.20;;;;;;5063907;28;20123;-76
2022/07/30 04:31:44;;;;;;;15.57;12.50;;;14.60;82.20;;;;;;5064001;28;20064;-76
2022/07/30 04:34:14;;;;;;;17.25;12.85;;;14.70;82.20;;;;;;5065795;28;20037;-76
2022/07/30 04:36:41;;;;;;;17.25;12.27;;;14.60;82.30;;;;;;5065460;28;20033;-75
2022/07/30 04:39:07;;;;;;;15.88;13.13;;;14.70;82.40;;;;;;5060694;28;20469;-75
2022/07/30 04:41:33;;;;;;;16.67;12.68;;;14.70;82.30;;;;;;5064974;28;20090;-77
2022/07/30 04:43:58;;;;;;;15.85;12.48;;;14.70;82.20;;;;;;5065520;28;20037;-75
2022/07/30 04:46:24;;;;;;;16.00;13.38;;;14.80;82.10;;;;;;5064375;28;20480;-74
2022/07/30 04:48:49;;;;;;;16.55;14.07;;;14.80;82.00;;;;;;5066721;28;20411;-75
2022/07/30 04:51:35;;;;;;;14.48;12.02;;;14.70;82.10;;;;;;5066002;28;20503;-75
2022/07/30 04:54:04;;;;;;;13.90;12.13;;;14.80;81.90;;;;;;5063898;28;20039;-75
2022/07/30 04:56:31;;;;;;;17.35;13.55;;;14.80;82.00;;;;;;5062019;28;20111;-76
2022/07/30 04:58:57;;;;;;;19.65;15.13;;;14.90;82.10;;;;;;5066455;28;20036;-75
2022/07/30 05:01:26;;;;;;;18.90;15.10;;;15.00;82.30;;;;;;5062444;28;20039;-75
2022/07/30 05:03:52;;;;;;;23.13;17.23;;;15.10;82.20;;;;;;5068682;28;20078;-75
2022/07/30 05:06:20;;;;;;;15.73;13.88;;;15.20;82.20;;;;;;5068817;28;20427;-75
2022/07/30 05:08:45;;;;;;;16.77;14.40;;;15.30;82.20;;;;;;5060951;28;20072;-75
2022/07/30 05:11:12;;;;;;;18.40;13.82;;;15.50;81.80;;;;;;5065240;28;20075;-75
2022/07/30 05:13:41;;;;;;;16.83;12.35;;;15.60;81.70;;;;;;5064136;28;20068;-76
2022/07/30 05:16:07;;;;;;;16.65;13.25;;;15.80;81.20;;;;;;5063078;28;20037;-76
2022/07/30 05:18:33;;;;;;;18.70;14.02;;;16.00;81.00;;;;;;5061495;28;20033;-75
2022/07/30 05:20:59;;;;;;;17.02;12.95;;;16.10;80.30;;;;;;5069914;28;20032;-77
2022/07/30 05:23:24;;;;;;;16.55;13.60;;;16.30;79.50;;;;;;5070037;28;20431;-75
2022/07/30 05:25:50;;;;;;;16.67;14.38;;;16.50;79.10;;;;;;5063302;28;20398;-78
2022/07/30 05:28:15;;;;;;;17.17;13.77;;;17.10;78.30;;;;;;5070332;28;20451;-76
2022/07/30 05:30:41;;;;;;;17.80;12.30;;;18.40;74.50;;;;;;5064839;28;20032;-75
2022/07/30 05:33:07;;;;;;;18.02;12.02;;;19.40;70.40;;;;;;5063693;28;20035;-78
2022/07/30 05:35:32;;;;;;;30.60;13.32;;;20.30;68.20;;;;;;5064511;28;20116;-76
2022/07/30 05:37:59;;;;;;;47.47;14.75;;;21.10;64.30;;;;;;5060674;28;20055;-76
2022/07/30 05:40:25;;;;;;;59.58;16.25;;;22.10;62.60;;;;;;5060405;28;20382;-77
2022/07/30 05:42:50;;;;;;;51.90;13.75;;;22.60;59.70;;;;;;5060980;28;20029;-75
2022/07/30 05:45:16;;;;;;;36.60;14.50;;;23.10;58.50;;;;;;5057551;28;20028;-76
2022/07/30 05:47:42;;;;;;;26.13;12.20;;;22.80;57.30;;;;;;5056617;28;20043;-76
2022/07/30 05:50:07;;;;;;;23.73;11.23;;;22.00;60.60;;;;;;5056765;28;20041;-76
2022/07/30 05:52:33;;;;;;;16.67;10.90;;;21.20;63.10;;;;;;5054957;28;20336;-79
2022/07/30 05:54:59;;;;;;;16.50;11.75;;;21.60;63.00;;;;;;5063540;28;20055;-76
2022/07/30 05:57:24;;;;;;;19.00;13.02;;;22.60;60.80;;;;;;5061043;28;20064;-76
2022/07/30 05:59:50;;;;;;;17.88;12.30;;;22.80;58.60;;;;;;5066014;28;20417;-76
2022/07/30 06:02:16;;;;;;;17.75;12.88;;;22.80;59.20;;;;;;5063180;28;20036;-77
2022/07/30 06:04:42;;;;;;;20.92;13.30;;;22.80;59.20;;;;;;5067909;28;20062;-74
2022/07/30 06:07:07;;;;;;;17.30;11.98;;;22.40;60.00;;;;;;5062871;28;20047;-77
2022/07/30 06:09:33;;;;;;;15.13;12.70;;;21.40;64.10;;;;;;5069564;28;20125;-76
2022/07/30 06:11:59;;;;;;;20.15;14.52;;;20.90;65.40;;;;;;5065256;28;20384;-77
2022/07/30 06:14:24;;;;;;;18.38;13.23;;;20.50;66.70;;;;;;5062781;28;20036;-77
2022/07/30 06:16:50;;;;;;;15.80;12.88;;;20.20;68.10;;;;;;5062927;28;20033;-76
2022/07/30 06:19:16;;;;;;;16.35;12.40;;;20.00;69.50;;;;;;5064274;28;20462;-76
2022/07/30 06:21:41;;;;;;;19.40;15.68;;;19.90;70.10;;;;;;5062883;28;20528;-77
2022/07/30 06:24:08;;;;;;;18.63;15.27;;;19.60;70.90;;;;;;5065620;28;20036;-77
2022/07/30 06:26:34;;;;;;;16.98;14.23;;;19.40;72.60;;;;;;5061533;28;20045;-77
2022/07/30 06:28:59;;;;;;;18.75;14.30;;;19.50;72.90;;;;;;5064079;28;20048;-77
2022/07/30 06:31:25;;;;;;;21.95;13.57;;;19.60;72.50;;;;;;5061432;28;20098;-77
2022/07/30 06:33:50;;;;;;;22.83;13.80;;;19.70;73.10;;;;;;5062866;28;20512;-79
2022/07/30 06:36:16;;;;;;;19.95;13.30;;;19.80;71.60;;;;;;5061483;28;20033;-77
2022/07/30 06:38:42;;;;;;;17.05;13.68;;;20.00;71.40;;;;;;5059048;28;20045;-77
2022/07/30 06:41:08;;;;;;;21.05;13.23;;;20.10;70.70;;;;;;5065829;28;20037;-77
2022/07/30 06:43:33;;;;;;;16.48;11.95;;;20.30;70.40;;;;;;5065543;28;20094;-77
2022/07/30 06:45:59;;;;;;;20.45;12.82;;;20.60;69.80;;;;;;5062950;28;20029;-77
2022/07/30 06:48:25;;;;;;;19.10;12.90;;;20.90;68.90;;;;;;5060620;28;20040;-77
2022/07/30 06:50:51;;;;;;;16.85;13.27;;;21.10;68.20;;;;;;5070535;28;20040;-77
2022/07/30 06:53:16;;;;;;;16.17;12.90;;;21.40;67.00;;;;;;5063434;28;20035;-76
2022/07/30 06:55:42;;;;;;;17.38;12.38;;;21.40;67.30;;;;;;5062868;28;20063;-78
2022/07/30 06:58:08;;;;;;;18.40;11.00;;;21.30;67.80;;;;;;5062829;28;20025;-75
2022/07/30 07:00:33;;;;;;;13.77;10.43;;;21.60;67.30;;;;;;5063705;28;20044;-75
2022/07/30 07:02:59;;;;;;;14.82;9.80;;;21.50;66.70;;;;;;5061868;28;20036;-76
2022/07/30 07:05:27;;;;;;;19.17;10.52;;;21.60;66.90;;;;;;5065610;28;20072;-77
2022/07/30 07:07:53;;;;;;;15.43;10.93;;;21.70;66.50;;;;;;5061660;28;20369;-77
2022/07/30 07:10:19;;;;;;;14.77;12.25;;;22.00;67.00;;;;;;5064346;28;20138;-76
2022/07/30 07:12:45;;;;;;;14.40;9.07;;;21.90;66.40;;;;;;5062510;28;20071;-76
2022/07/30 07:15:11;;;;;;;12.27;7.93;;;21.90;67.20;;;;;;5061982;28;20458;-75
2022/07/30 07:17:37;;;;;;;13.13;8.70;;;22.10;65.70;;;;;;5066252;28;20028;-75
2022/07/30 07:20:03;;;;;;;15.00;8.88;;;22.30;65.30;;;;;;5060449;28;20029;-75
2022/07/30 07:22:29;;;;;;;12.68;9.15;;;22.60;64.00;;;;;;5061014;28;20086;-75
2022/07/30 07:24:55;;;;;;;13.95;9.43;;;22.60;62.40;;;;;;5061049;28;20530;-76
2022/07/30 07:27:21;;;;;;;15.18;8.57;;;22.70;62.30;;;;;;5065690;28;20375;-75
2022/07/30 07:29:46;;;;;;;16.30;7.55;;;23.00;60.70;;;;;;5066002;28;20083;-75
2022/07/30 07:32:12;;;;;;;12.13;6.95;;;23.10;60.20;;;;;;5060368;28;20074;-76
2022/07/30 07:34:37;;;;;;;12.95;7.47;;;23.20;59.00;;;;;;5062777;28;20064;-73
2022/07/30 07:37:03;;;;;;;15.20;8.02;;;23.20;59.10;;;;;;5056835;28;20036;-77
2022/07/30 07:39:29;;;;;;;12.43;6.78;;;23.30;58.30;;;;;;5062323;28;20041;-76
2022/07/30 07:41:54;;;;;;;15.35;7.20;;;23.40;58.00;;;;;;5061913;28;20086;-76
2022/07/30 07:44:20;;;;;;;16.17;7.53;;;23.50;57.60;;;;;;5061901;28;23404;-78
2022/07/30 07:46:47;;;;;;;11.38;6.15;;;23.50;56.80;;;;;;5060934;28;20032;-77
2022/07/30 07:49:12;;;;;;;10.77;6.72;;;23.50;57.30;;;;;;5061732;28;20047;-75
2022/07/30 07:51:38;;;;;;;11.43;6.55;;;23.60;54.50;;;;;;5068577;28;20029;-76
2022/07/30 07:54:04;;;;;;;11.00;5.22;;;23.60;55.20;;;;;;5067822;28;20119;-79
2022/07/30 07:56:29;;;;;;;9.90;4.35;;;23.90;55.20;;;;;;5063828;28;20101;-75
2022/07/30 07:58:56;;;;;;;7.97;3.70;;;23.80;53.60;;;;;;5069321;28;20035;-75
2022/07/30 08:01:22;;;;;;;10.35;3.88;;;23.80;51.90;;;;;;5067338;28;20032;-76
2022/07/30 08:03:47;;;;;;;7.47;3.63;;;23.80;51.90;;;;;;5066083;28;20044;-76
2022/07/30 08:06:13;;;;;;;8.45;3.60;;;24.00;50.70;;;;;;5069826;28;20111;-75
2022/07/30 08:08:39;;;;;;;6.95;3.03;;;24.10;49.70;;;;;;5066457;28;20093;-79
2022/07/30 08:11:05;;;;;;;10.77;4.70;;;24.10;50.40;;;;;;5067629;28;20404;-75
2022/07/30 08:13:32;;;;;;;7.65;4.43;;;24.10;51.20;;;;;;5064979;28;20082;-76
2022/07/30 08:16:00;;;;;;;10.60;6.57;;;24.10;53.30;;;;;;5070651;28;20114;-76
2022/07/30 08:18:25;;;;;;;10.52;5.97;;;24.20;53.10;;;;;;5063794;28;20041;-75
2022/07/30 08:20:51;;;;;;;9.25;4.93;;;24.30;53.60;;;;;;5065856;28;20044;-76
2022/07/30 08:23:18;;;;;;;12.38;5.95;;;24.50;53.20;;;;;;5062663;28;20370;-74
2022/07/30 08:25:44;;;;;;;15.52;6.38;;;24.40;53.30;;;;;;5064893;28;20047;-75
2022/07/30 08:28:09;;;;;;;12.77;6.65;;;24.60;53.10;;;;;;5068144;28;20033;-75
2022/07/30 08:30:35;;;;;;;10.45;6.10;;;24.50;52.60;;;;;;5067472;28;20368;-76
2022/07/30 08:33:01;;;;;;;10.70;6.72;;;24.90;51.50;;;;;;5067211;28;20068;-76
2022/07/30 08:35:27;;;;;;;11.45;6.43;;;25.00;51.10;;;;;;5065306;28;20068;-75
2022/07/30 08:37:52;;;;;;;8.40;4.60;;;25.20;48.90;;;;;;5065441;28;20029;-76
2022/07/30 08:40:19;;;;;;;10.52;4.00;;;25.50;47.60;;;;;;5062853;28;20043;-77
2022/07/30 08:42:45;;;;;;;7.32;3.53;;;25.80;45.90;;;;;;5062342;28;20048;-76
2022/07/30 08:45:16;;;;;;;9.48;3.88;;;25.50;45.10;;;;;;5063952;28;20036;-77
2022/07/30 08:47:44;;;;;;;9.90;3.35;;;25.50;44.60;;;;;;5063105;28;20037;-75
2022/07/30 08:50:10;;;;;;;9.00;4.55;;;25.50;45.70;;;;;;5063934;28;20059;-76
2022/07/30 08:52:36;;;;;;;8.10;3.22;;;25.50;45.20;;;;;;5064217;28;20515;-76
2022/07/30 08:55:04;;;;;;;10.32;3.95;;;25.40;45.30;;;;;;5065537;28;20105;-76
2022/07/30 08:57:31;;;;;;;8.48;3.08;;;25.30;44.70;;;;;;5065366;28;20044;-76
2022/07/30 09:00:00;;;;;;;7.28;2.78;;;25.40;43.90;;;;;;5064846;28;20553;-79
2022/07/30 09:02:29;;;;;;;9.75;3.72;;;25.70;44.10;;;;;;5063038;28;20050;-76
2022/07/30 09:04:55;;;;;;;9.02;3.20;;;26.00;42.90;;;;;;5064888;28;20063;-77
2022/07/30 09:07:21;;;;;;;9.15;2.55;;;25.90;42.50;;;;;;5064741;28;20506;-79
2022/07/30 09:09:46;;;;;;;7.15;3.20;;;26.10;44.60;;;;;;5063772;28;20098;-75
2022/07/30 09:12:30;;;;;;;7.50;3.47;;;26.10;44.30;;;;;;5067061;28;20036;-75
2022/07/30 09:15:14;;;;;;;9.77;3.17;;;25.90;44.70;;;;;;5068372;28;20056;-76
2022/07/30 09:17:57;;;;;;;5.00;2.50;;;25.80;45.20;;;;;;5066619;28;20055;-75
2022/07/30 09:20:34;;;;;;;10.90;3.28;;;25.90;46.70;;;;;;5063613;28;20510;-76
2022/07/30 09:23:03;;;;;;;7.70;3.13;;;25.80;45.80;;;;;;5062572;28;20047;-79
2022/07/30 09:25:43;;;;;;;7.80;2.90;;;25.80;45.50;;;;;;5060337;28;20043;-75
2022/07/30 09:28:10;;;;;;;8.13;2.53;;;25.80;45.40;;;;;;5064543;28;20058;-75
2022/07/30 09:30:55;;;;;;;8.15;3.03;;;26.00;45.90;;;;;;5062976;28;20070;-76
2022/07/30 09:33:42;;;;;;;7.55;3.05;;;26.10;45.50;;;;;;5064839;28;20408;-77
2022/07/30 09:36:10;;;;;;;8.38;2.92;;;26.20;45.30;;;;;;5068695;28;20502;-76
2022/07/30 09:38:49;;;;;;;7.55;3.00;;;26.10;46.40;;;;;;5064110;28;20052;-82
2022/07/30 09:41:17;;;;;;;8.48;3.28;;;25.80;46.60;;;;;;5062014;28;20037;-76
2022/07/30 09:43:43;;;;;;;6.40;2.50;;;25.70;45.20;;;;;;5065209;28;20062;-78
2022/07/30 09:46:10;;;;;;;9.20;3.00;;;25.80;44.70;;;;;;5066073;28;20546;-76
2022/07/30 09:48:36;;;;;;;10.70;3.10;;;25.80;44.40;;;;;;5064826;28;20457;-78
2022/07/30 09:51:02;;;;;;;9.50;2.88;;;26.10;43.90;;;;;;5063081;28;20040;-77
2022/07/30 09:53:28;;;;;;;6.85;2.40;;;26.50;42.40;;;;;;5066962;28;20128;-81
2022/07/30 09:55:55;;;;;;;7.65;2.45;;;26.60;41.50;;;;;;5073210;28;20126;-76
2022/07/30 09:58:21;;;;;;;6.28;2.05;;;26.50;40.00;;;;;;5062375;28;20125;-80
2022/07/30 10:00:47;;;;;;;7.57;2.35;;;26.50;40.20;;;;;;5070074;28;20024;-79
2022/07/30 10:03:24;;;;;;;6.90;2.03;;;26.50;39.10;;;;;;5061862;28;20472;-78
2022/07/30 10:05:55;;;;;;;7.88;2.30;;;26.30;40.60;;;;;;5052903;28;20033;-82
2022/07/30 10:08:45;;;;;;;4.85;1.95;;;26.50;39.20;;;;;;5059931;28;20067;-77
2022/07/30 10:11:13;;;;;;;5.70;2.03;;;26.70;39.20;;;;;;5058939;28;20049;-79
2022/07/30 10:13:40;;;;;;;4.15;1.70;;;27.00;38.60;;;;;;5068170;28;20511;-79
2022/07/30 10:16:07;;;;;;;5.32;1.90;;;27.00;37.70;;;;;;5061263;28;20041;-80
2022/07/30 10:18:34;;;;;;;5.30;2.22;;;27.10;37.90;;;;;;5060533;28;20433;-82
2022/07/30 10:21:01;;;;;;;4.57;1.80;;;27.10;37.90;;;;;;5059036;28;20444;-78
2022/07/30 10:23:31;;;;;;;4.63;1.90;;;27.20;38.40;;;;;;5062294;28;20365;-79
2022/07/30 10:26:00;;;;;;;6.93;1.80;;;27.50;37.60;;;;;;5058668;28;20115;-82
2022/07/30 10:28:28;;;;;;;4.82;1.80;;;27.70;37.40;;;;;;5061409;28;20067;-78
2022/07/30 10:30:55;;;;;;;4.53;1.70;;;27.80;35.80;;;;;;5063941;28;20471;-78
2022/07/30 10:33:23;;;;;;;6.07;2.10;;;27.80;36.90;;;;;;5062784;28;20464;-86
2022/07/30 10:35:49;;;;;;;5.68;1.88;;;27.80;36.90;;;;;;5065622;28;20366;-78
2022/07/30 10:38:17;;;;;;;4.53;1.67;;;27.80;36.90;;;;;;5065800;28;20040;-77
2022/07/30 10:41:10;;;;;;;5.00;1.83;;;27.90;36.30;;;;;;5066224;28;20032;-78
2022/07/30 10:43:53;;;;;;;6.20;2.35;;;28.20;36.40;;;;;;5019095;28;20193;-78
2022/07/30 10:46:43;;;;;;;5.53;1.80;;;28.30;36.20;;;;;;5057040;28;20055;-77
2022/07/30 10:49:11;;;;;;;4.75;1.70;;;28.50;36.30;;;;;;5073529;28;20048;-79
2022/07/30 10:51:47;;;;;;;6.70;1.67;;;28.90;36.20;;;;;;5058834;28;20044;-77
2022/07/30 10:54:32;;;;;;;4.85;1.85;;;29.10;35.10;;;;;;5059456;28;20074;-79
2022/07/30 10:57:11;;;;;;;4.47;1.55;;;29.10;35.00;;;;;;5058542;28;20549;-78
2022/07/30 10:59:54;;;;;;;6.05;2.00;;;29.00;35.10;;;;;;5062568;28;20153;-81
2022/07/30 11:02:21;;;;;;;5.82;1.65;;;28.60;35.10;;;;;;5059170;28;20545;-76
2022/07/30 11:04:47;;;;;;;7.80;2.22;;;28.50;35.20;;;;;;5057205;28;20090;-76
2022/07/30 11:07:23;;;;;;;6.82;1.77;;;28.70;35.40;;;;;;5057803;28;20089;-77
2022/07/30 11:09:50;;;;;;;6.70;1.88;;;28.50;35.20;;;;;;5056172;28;20079;-76
2022/07/30 11:12:42;;;;;;;6.07;2.10;;;28.40;35.40;;;;;;5058740;28;20032;-76
2022/07/30 11:15:10;;;;;;;6.57;1.80;;;28.70;35.80;;;;;;5063001;28;20478;-75
2022/07/30 11:18:03;;;;;;;5.22;1.83;;;28.60;35.80;;;;;;5058023;28;20040;-77
2022/07/30 11:20:31;;;;;;;5.57;1.75;;;28.50;35.90;;;;;;5056785;28;20472;-76
2022/07/30 11:23:36;;;;;;;2.80;1.50;;;28.40;35.80;;;;;;5057153;28;20040;-76
2022/07/30 11:26:02;;;;;;;4.15;1.70;;;28.60;36.60;;;;;;4995055;28;20038;-74
2022/07/30 11:28:38;;;;;;;6.75;1.90;;;28.80;36.20;;;;;;5046904;28;20125;-82
2022/07/30 11:31:26;;;;;;;4.43;1.80;;;28.80;36.60;;;;;;5057334;28;20052;-79
2022/07/30 11:33:52;;;;;;;5.97;1.90;;;28.90;35.50;;;;;;5059874;28;20024;-80
2022/07/30 11:36:18;;;;;;;5.22;1.80;;;28.80;35.50;;;;;;5040454;28;21174;-78
2022/07/30 11:38:49;;;;;;;5.57;1.80;;;28.70;35.00;;;;;;5041634;28;20692;-81
2022/07/30 11:41:15;;;;;;;5.63;1.90;;;28.80;34.90;;;;;;5052362;28;20067;-77
2022/07/30 11:43:41;;;;;;;6.47;2.00;;;28.70;35.80;;;;;;5057471;28;20037;-76
2022/07/30 11:46:22;;;;;;;6.10;1.73;;;28.60;35.10;;;;;;5055855;28;20456;-78
2022/07/30 11:49:04;;;;;;;8.40;2.40;;;28.60;36.50;;;;;;5057917;28;20457;-77
2022/07/30 11:51:44;;;;;;;4.38;1.70;;;28.50;36.30;;;;;;5056112;28;20113;-75
2022/07/30 11:54:11;;;;;;;5.20;2.33;;;28.60;35.50;;;;;;5056982;28;20371;-79
2022/07/30 11:56:58;;;;;;;5.65;1.67;;;28.60;35.40;;;;;;5058957;28;20044;-76
2022/07/30 11:59:24;;;;;;;6.00;2.00;;;28.60;36.20;;;;;;5058170;28;20502;-79
2022/07/30 12:01:52;;;;;;;5.18;1.50;;;28.70;35.50;;;;;;5057322;28;20575;-78
2022/07/30 12:04:18;;;;;;;4.60;1.63;;;28.90;36.20;;;;;;5060854;28;20036;-76
2022/07/30 12:06:45;;;;;;;3.35;1.55;;;29.00;35.20;;;;;;5059426;28;20189;-78
2022/07/30 12:09:12;;;;;;;4.63;1.80;;;29.00;34.70;;;;;;5054613;28;20912;-78
2022/07/30 12:11:38;;;;;;;4.82;1.67;;;29.00;34.50;;;;;;5055762;28;20048;-76
2022/07/30 12:14:04;;;;;;;5.13;2.00;;;29.00;35.30;;;;;;5055777;28;20450;-77
2022/07/30 12:16:32;;;;;;;4.85;1.67;;;29.00;34.90;;;;;;5057733;28;20573;-77
2022/07/30 12:19:02;;;;;;;6.60;2.00;;;28.80;35.60;;;;;;5061492;28;20102;-76
2022/07/30 12:21:30;;;;;;;3.75;1.80;;;28.70;36.20;;;;;;5058220;28;20393;-76
2022/07/30 12:23:57;;;;;;;5.38;1.98;;;29.00;35.90;;;;;;5057887;28;20036;-77
2022/07/30 12:26:33;;;;;;;6.90;2.08;;;29.20;34.70;;;;;;5055654;28;20060;-77
2022/07/30 12:29:06;;;;;;;6.60;2.05;;;29.10;35.60;;;;;;5050505;28;20048;-79
2022/07/30 12:31:32;;;;;;;6.35;2.00;;;29.20;34.90;;;;;;5055884;28;20032;-77
2022/07/30 12:33:59;;;;;;;7.43;1.85;;;29.00;34.50;;;;;;5058501;28;20501;-76
2022/07/30 12:36:34;;;;;;;5.40;2.05;;;29.10;34.70;;;;;;5061971;28;20101;-76
2022/07/30 12:39:01;;;;;;;4.35;1.67;;;29.30;34.10;;;;;;5056978;28;20032;-77
2022/07/30 12:41:41;;;;;;;4.93;1.83;;;29.60;35.00;;;;;;5060174;28;20365;-81
2022/07/30 12:44:07;;;;;;;6.57;1.92;;;30.00;34.10;;;;;;5058799;28;20040;-77